createdAt,value
2023-02-12T00:00:09.142Z,4.6
2023-02-12T00:01:18.844Z,3.4
2023-02-12T00:02:28.572Z,3.9
2023-02-12T00:03:38.338Z,3.2
2023-02-12T00:04:47.163Z,3.6
2023-02-12T00:05:57.020Z,4.1
2023-02-12T00:07:06.647Z,3.7
2023-02-12T00:08:16.425Z,3.6
2023-02-12T00:09:26.113Z,4.2
2023-02-12T00:10:35.854Z,4
2023-02-12T00:11:45.648Z,3.4
2023-02-12T00:12:55.427Z,4
2023-02-12T00:14:05.136Z,4.5
2023-02-12T00:15:14.874Z,3.6
2023-02-12T00:16:24.621Z,4.3
2023-02-12T00:17:34.340Z,3.9
2023-02-12T00:18:44.057Z,4
2023-02-12T00:19:54.760Z,4
2023-02-12T00:21:04.501Z,3.7
2023-02-12T00:22:14.254Z,4.6
2023-02-12T00:23:23.992Z,4.6
2023-02-12T00:24:33.738Z,4.3
2023-02-12T00:25:43.484Z,3.9
2023-02-12T00:26:53.210Z,4
2023-02-12T00:28:03.010Z,4.1
2023-02-12T00:29:12.676Z,3.8
2023-02-12T00:30:21.464Z,3.6
2023-02-12T00:31:31.162Z,4.3
2023-02-12T00:32:40.856Z,3.9
2023-02-12T00:33:49.645Z,4.1
2023-02-12T00:34:59.307Z,4.2
2023-02-12T00:36:07.976Z,3.9
2023-02-12T00:37:17.633Z,4.4
2023-02-12T00:38:26.294Z,3.9
2023-02-12T00:39:36.061Z,3.6
2023-02-12T00:40:45.788Z,3.5
2023-02-12T00:41:55.535Z,4
2023-02-12T00:43:05.232Z,3.9
2023-02-12T00:44:14.909Z,3.8
2023-02-12T00:45:24.617Z,4.1
2023-02-12T00:46:34.254Z,4.2
2023-02-12T00:47:41.879Z,3.7
2023-02-12T00:48:50.534Z,3.7
2023-02-12T00:50:00.259Z,4.4
2023-02-12T00:51:10.054Z,4.2
2023-02-12T00:52:19.765Z,4.6
2023-02-12T00:53:29.494Z,4.3
2023-02-12T00:54:38.201Z,3.8
2023-02-12T00:55:47.901Z,4.6
2023-02-12T00:56:55.647Z,4.2
2023-02-12T00:58:05.372Z,4.5
2023-02-12T00:59:15.111Z,4
2023-02-12T01:00:23.827Z,3.1
2023-02-12T01:01:33.610Z,3.5
2023-02-12T01:02:43.430Z,4.4
2023-02-12T01:03:53.132Z,4.1
2023-02-12T01:05:02.987Z,3.7
2023-02-12T01:06:11.665Z,4.4
2023-02-12T01:07:20.804Z,4.5
2023-02-12T01:08:30.436Z,3.9
2023-02-12T01:09:40.163Z,4.6
2023-02-12T01:10:49.893Z,4
2023-02-12T01:11:58.608Z,4.6
2023-02-12T01:13:07.320Z,4.6
2023-02-12T01:14:17.001Z,4.2
2023-02-12T01:15:25.660Z,4.1
2023-02-12T01:16:34.419Z,4.6
2023-02-12T01:17:44.158Z,5.3
2023-02-12T01:18:53.757Z,4.4
2023-02-12T01:20:02.434Z,4.4
2023-02-12T01:21:12.170Z,4.5
2023-02-12T01:22:21.905Z,5.3
2023-02-12T01:23:31.741Z,4.5
2023-02-12T01:24:39.379Z,4.1
2023-02-12T01:25:48.069Z,4.7
2023-02-12T01:26:57.747Z,4.5
2023-02-12T01:28:07.468Z,4.8
2023-02-12T01:29:17.120Z,4.8
2023-02-12T01:30:26.842Z,5
2023-02-12T01:31:36.798Z,4.8
2023-02-12T01:32:46.331Z,4.8
2023-02-12T01:33:55.106Z,5.2
2023-02-12T01:35:04.746Z,5
2023-02-12T01:36:14.448Z,4.7
2023-02-12T01:37:23.139Z,4.3
2023-02-12T01:38:32.844Z,5.5
2023-02-12T01:39:42.600Z,5.2
2023-02-12T01:40:52.336Z,5.6
2023-02-12T01:42:02.070Z,5.4
2023-02-12T01:43:10.804Z,4.3
2023-02-12T01:44:20.514Z,5.3
2023-02-12T01:45:30.182Z,4.9
2023-02-12T01:46:39.932Z,5.2
2023-02-12T01:47:49.520Z,4.7
2023-02-12T01:48:58.227Z,4.9
2023-02-12T01:50:07.935Z,4.4
2023-02-12T01:51:17.700Z,5
2023-02-12T01:52:26.401Z,4.2
2023-02-12T01:53:36.143Z,4.5
2023-02-12T01:54:43.874Z,3.8
2023-02-12T01:55:52.835Z,4.3
2023-02-12T01:57:01.162Z,4.4
2023-02-12T01:58:08.815Z,3.3
2023-02-12T01:59:18.483Z,4.2
2023-02-12T02:00:28.371Z,3.4
2023-02-12T02:01:37.159Z,3.3
2023-02-12T02:02:46.857Z,3.8
2023-02-12T02:03:55.609Z,3.6
2023-02-12T02:05:04.382Z,3.7
2023-02-12T02:06:14.261Z,3.8
2023-02-12T02:07:23.003Z,4.2
2023-02-12T02:08:32.741Z,3.4
2023-02-12T02:09:42.483Z,3.5
2023-02-12T02:10:51.221Z,3.6
2023-02-12T02:12:00.979Z,3.5
2023-02-12T02:13:10.781Z,3.5
2023-02-12T02:14:20.535Z,3.6
2023-02-12T02:15:30.283Z,4.1
2023-02-12T02:16:40.037Z,4
2023-02-12T02:17:49.805Z,3.5
2023-02-12T02:18:59.531Z,3.9
2023-02-12T02:20:08.296Z,3.6
2023-02-12T02:21:17.630Z,4.1
2023-02-12T02:22:27.417Z,3.5
2023-02-12T02:23:36.195Z,3.7
2023-02-12T02:24:45.923Z,3.5
2023-02-12T02:25:56.081Z,3.3
2023-02-12T02:27:05.472Z,3.5
2023-02-12T02:28:15.274Z,3.6
2023-02-12T02:29:25.005Z,3.8
2023-02-12T02:30:34.849Z,3.6
2023-02-12T02:31:43.620Z,3.2
2023-02-12T02:32:53.316Z,3.4
2023-02-12T02:34:02.989Z,3.4
2023-02-12T02:35:12.741Z,3.5
2023-02-12T02:36:24.842Z,3.1
2023-02-12T02:37:33.067Z,3.8
2023-02-12T02:38:40.715Z,3.4
2023-02-12T02:39:50.390Z,4.5
2023-02-12T02:40:59.185Z,3.4
2023-02-12T02:42:08.948Z,3.5
2023-02-12T02:43:18.677Z,4.5
2023-02-12T02:44:27.362Z,4.2
2023-02-12T02:45:37.058Z,3.5
2023-02-12T02:46:46.775Z,4.5
2023-02-12T02:47:54.405Z,3.7
2023-02-12T02:49:03.069Z,3.9
2023-02-12T02:50:11.759Z,4.4
2023-02-12T02:51:21.524Z,4.2
2023-02-12T02:52:31.268Z,4.9
2023-02-12T02:53:41.005Z,4.1
2023-02-12T02:54:50.756Z,4
2023-02-12T02:56:00.436Z,3.6
2023-02-12T02:57:08.113Z,3.9
2023-02-12T02:58:17.804Z,3.8
2023-02-12T02:59:26.523Z,4
2023-02-12T03:00:37.285Z,3.7
2023-02-12T03:01:46.904Z,3.7
2023-02-12T03:02:55.593Z,3.4
2023-02-12T03:04:05.298Z,3.7
2023-02-12T03:05:15.000Z,4.2
2023-02-12T03:06:23.734Z,3.5
2023-02-12T03:07:33.462Z,3.3
2023-02-12T03:08:42.135Z,4.4
2023-02-12T03:09:51.863Z,3.6
2023-02-12T03:11:01.552Z,3.8
2023-02-12T03:12:09.240Z,3.8
2023-02-12T03:13:18.933Z,4.2
2023-02-12T03:14:32.233Z,3.7
2023-02-12T03:15:41.921Z,3.1
2023-02-12T03:16:51.611Z,3.7
2023-02-12T03:18:00.298Z,3.4
2023-02-12T03:19:09.954Z,4
2023-02-12T03:20:19.599Z,4.2
2023-02-12T03:21:28.372Z,3.1
2023-02-12T03:22:39.017Z,3.7
2023-02-12T03:23:47.715Z,3.3
2023-02-12T03:24:55.381Z,3.7
2023-02-12T03:26:05.078Z,3.9
2023-02-12T03:27:12.756Z,3.7
2023-02-12T03:28:21.442Z,3.4
2023-02-12T03:29:31.080Z,4.1
2023-02-12T03:30:40.812Z,4
2023-02-12T03:31:50.560Z,3.1
2023-02-12T03:32:59.307Z,3.7
2023-02-12T03:34:08.963Z,3.4
2023-02-12T03:35:18.641Z,4.4
2023-02-12T03:36:27.377Z,4
2023-02-12T03:37:36.115Z,3.9
2023-02-12T03:38:45.825Z,4.2
2023-02-12T03:39:53.511Z,4
2023-02-12T03:41:03.169Z,4.1
2023-02-12T03:42:11.837Z,3.7
2023-02-12T03:43:19.505Z,4.5
2023-02-12T03:44:29.258Z,4.5
2023-02-12T03:45:37.982Z,4.5
2023-02-12T03:46:46.565Z,4.5
2023-02-12T03:47:56.233Z,4.4
2023-02-12T03:49:04.916Z,4.6
2023-02-12T03:50:14.783Z,4.2
2023-02-12T03:51:22.441Z,4.4
2023-02-12T03:52:32.137Z,4.6
2023-02-12T03:53:40.840Z,4.5
2023-02-12T03:54:49.521Z,4.6
2023-02-12T03:55:59.258Z,4.4
2023-02-12T03:57:07.077Z,5.2
2023-02-12T03:58:16.769Z,5.1
2023-02-12T03:59:26.438Z,5.5
2023-02-12T04:00:34.077Z,4.9
2023-02-12T04:01:43.880Z,4.7
2023-02-12T04:02:52.490Z,4.7
2023-02-12T04:04:00.206Z,4.7
2023-02-12T04:05:09.830Z,4.6
2023-02-12T04:06:18.536Z,4.6
2023-02-12T04:07:27.209Z,4.9
2023-02-12T04:08:36.926Z,5.2
2023-02-12T04:09:45.627Z,4.9
2023-02-12T04:10:55.334Z,4.9
2023-02-12T04:12:03.982Z,4.8
2023-02-12T04:13:11.668Z,5.4
2023-02-12T04:14:21.329Z,5.2
2023-02-12T04:15:30.998Z,4.9
2023-02-12T04:16:40.732Z,5.3
2023-02-12T04:17:50.375Z,5.7
2023-02-12T04:18:58.031Z,5.4
2023-02-12T04:20:07.727Z,5.4
2023-02-12T04:21:16.408Z,5.4
2023-02-12T04:22:25.072Z,5
2023-02-12T04:23:34.737Z,5.3
2023-02-12T04:24:44.483Z,4.7
2023-02-12T04:25:53.279Z,5.4
2023-02-12T04:27:02.847Z,4.2
2023-02-12T04:28:10.597Z,5.1
2023-02-12T04:29:20.229Z,4.8
2023-02-12T04:30:29.035Z,5.2
2023-02-12T04:31:36.700Z,5
2023-02-12T04:32:46.258Z,4.9
2023-02-12T04:33:53.959Z,5.5
2023-02-12T04:35:02.740Z,5.3
2023-02-12T04:36:12.408Z,5.2
2023-02-12T04:37:20.064Z,5.3
2023-02-12T04:38:29.850Z,5.7
2023-02-12T04:39:39.508Z,5.9
2023-02-12T04:40:49.285Z,5.4
2023-02-12T04:41:59.073Z,6.1
2023-02-12T04:43:07.797Z,6.3
2023-02-12T04:44:17.517Z,7.1
2023-02-12T04:45:27.185Z,8.1
2023-02-12T04:46:35.842Z,7.4
2023-02-12T04:47:45.553Z,7.8
2023-02-12T04:48:54.191Z,6.9
2023-02-12T04:50:01.830Z,7.6
2023-02-12T04:51:11.604Z,7.8
2023-02-12T04:52:20.375Z,6.6
2023-02-12T04:53:29.117Z,6.9
2023-02-12T04:54:38.933Z,7.7
2023-02-12T04:55:48.645Z,6.8
2023-02-12T04:56:58.379Z,6.5
2023-02-12T04:58:08.149Z,6
2023-02-12T04:59:17.905Z,5.8
2023-02-12T05:00:27.639Z,6.4
2023-02-12T05:01:37.510Z,6.2
2023-02-12T05:02:46.224Z,5.3
2023-02-12T05:03:55.949Z,6.1
2023-02-12T05:05:05.765Z,5.8
2023-02-12T05:06:15.486Z,5.4
2023-02-12T05:07:24.220Z,5.7
2023-02-12T05:08:33.997Z,5.9
2023-02-12T05:09:43.753Z,6.4
2023-02-12T05:10:52.497Z,6.5
2023-02-12T05:12:02.309Z,6.5
2023-02-12T05:13:12.103Z,6.4
2023-02-12T05:14:20.851Z,6.8
2023-02-12T05:15:30.644Z,6.7
2023-02-12T05:16:40.604Z,7.4
2023-02-12T05:17:50.374Z,7
2023-02-12T05:19:00.136Z,7.7
2023-02-12T05:20:09.870Z,8.9
2023-02-12T05:21:19.631Z,8.7
2023-02-12T05:22:29.391Z,8.4
2023-02-12T05:23:38.166Z,8.6
2023-02-12T05:24:47.927Z,9.5
2023-02-12T05:25:57.730Z,8.7
2023-02-12T05:27:06.397Z,9.6
2023-02-12T05:28:16.314Z,8.8
2023-02-12T05:29:25.913Z,8.1
2023-02-12T05:30:35.664Z,8.2
2023-02-12T05:31:45.595Z,9.5
2023-02-12T05:32:55.120Z,8.6
2023-02-12T05:34:04.872Z,8.5
2023-02-12T05:35:13.591Z,9.1
2023-02-12T05:36:23.341Z,9.4
2023-02-12T05:37:33.102Z,8.7
2023-02-12T05:38:43.891Z,9.1
2023-02-12T05:39:53.654Z,7.6
2023-02-12T05:41:03.399Z,8.1
2023-02-12T05:42:12.119Z,7.5
2023-02-12T05:43:21.886Z,8.1
2023-02-12T05:44:31.609Z,7.3
2023-02-12T05:45:40.473Z,6.7
2023-02-12T05:46:50.206Z,7.2
2023-02-12T05:47:59.940Z,6.6
2023-02-12T05:49:09.686Z,6
2023-02-12T05:50:18.452Z,6.5
2023-02-12T05:51:28.222Z,6.3
2023-02-12T05:52:37.963Z,5.7
2023-02-12T05:53:46.709Z,5.9
2023-02-12T05:54:56.444Z,4.6
2023-02-12T05:56:06.173Z,5.5
2023-02-12T05:57:15.975Z,5
2023-02-12T05:58:25.760Z,5.3
2023-02-12T05:59:35.476Z,5.9
2023-02-12T06:00:45.205Z,5
2023-02-12T06:01:54.969Z,5.9
2023-02-12T06:03:04.770Z,5.1
2023-02-12T06:04:14.584Z,4.6
2023-02-12T06:05:24.310Z,4.7
2023-02-12T06:06:34.058Z,5.4
2023-02-12T06:07:43.825Z,4.4
2023-02-12T06:08:53.835Z,4.5
2023-02-12T06:10:03.569Z,4.8
2023-02-12T06:11:13.309Z,4.8
2023-02-12T06:12:23.025Z,4.8
2023-02-12T06:13:32.810Z,4.5
2023-02-12T06:14:41.530Z,4.3
2023-02-12T06:15:49.376Z,4.7
2023-02-12T06:16:59.041Z,4.2
2023-02-12T06:18:06.754Z,3.9
2023-02-12T06:19:15.528Z,4.6
2023-02-12T06:20:25.309Z,4.6
2023-02-12T06:21:34.018Z,4.6
2023-02-12T06:22:43.758Z,4.7
2023-02-12T06:23:53.601Z,4.6
2023-02-12T06:25:02.281Z,4.5
2023-02-12T06:26:12.084Z,4.3
2023-02-12T06:27:21.912Z,3.9
2023-02-12T06:28:31.726Z,4.2
2023-02-12T06:29:41.438Z,4.4
2023-02-12T06:30:51.363Z,4.3
2023-02-12T06:32:01.170Z,4.8
2023-02-12T06:33:10.719Z,3.6
2023-02-12T06:34:19.463Z,4.1
2023-02-12T06:35:29.312Z,4.4
2023-02-12T06:36:39.040Z,3.3
2023-02-12T06:37:48.854Z,4.2
2023-02-12T06:38:58.611Z,4
2023-02-12T06:40:08.346Z,3.5
2023-02-12T06:41:18.155Z,3.9
2023-02-12T06:42:27.905Z,4.4
2023-02-12T06:43:38.739Z,4.8
2023-02-12T06:44:47.555Z,4.6
2023-02-12T06:45:56.786Z,4.2
2023-02-12T06:47:06.039Z,4.7
2023-02-12T06:48:15.792Z,4.2
2023-02-12T06:49:24.555Z,4.2
2023-02-12T06:50:34.282Z,5.5
2023-02-12T06:51:43.026Z,4.6
2023-02-12T06:52:52.765Z,4.9
2023-02-12T06:54:02.511Z,5
2023-02-12T06:55:11.272Z,4.7
2023-02-12T06:56:21.005Z,5.4
2023-02-12T06:57:30.722Z,5.5
2023-02-12T06:58:40.468Z,4.9
2023-02-12T06:59:50.222Z,6.1
2023-02-12T07:00:59.995Z,5.6
2023-02-12T07:02:07.689Z,5.8
2023-02-12T07:03:17.459Z,5.6
2023-02-12T07:04:27.186Z,6
2023-02-12T07:05:36.916Z,6.5
2023-02-12T07:06:46.686Z,6
2023-02-12T07:07:56.530Z,5.9
2023-02-12T07:09:06.329Z,6.5
2023-02-12T07:10:16.136Z,6.3
2023-02-12T07:11:25.852Z,6
2023-02-12T07:12:35.686Z,6.2
2023-02-12T07:13:45.419Z,7.5
2023-02-12T07:14:55.256Z,6.7
2023-02-12T07:16:03.969Z,6.7
2023-02-12T07:17:12.705Z,7.5
2023-02-12T07:18:22.448Z,6.3
2023-02-12T07:19:32.202Z,6.2
2023-02-12T07:20:41.915Z,7.4
2023-02-12T07:21:51.642Z,7.1
2023-02-12T07:23:00.450Z,6.3
2023-02-12T07:24:10.421Z,6.1
2023-02-12T07:25:20.160Z,6.7
2023-02-12T07:26:29.899Z,6.3
2023-02-12T07:27:39.707Z,6.3
2023-02-12T07:28:49.431Z,7.5
2023-02-12T07:29:59.233Z,6.3
2023-02-12T07:31:09.112Z,7
2023-02-12T07:32:18.689Z,6.9
2023-02-12T07:33:28.439Z,6
2023-02-12T07:34:38.202Z,6.4
2023-02-12T07:35:46.977Z,5.7
2023-02-12T07:36:56.849Z,5.2
2023-02-12T07:38:06.638Z,5.9
2023-02-12T07:39:14.403Z,6
2023-02-12T07:40:24.173Z,5.8
2023-02-12T07:41:33.997Z,5.4
2023-02-12T07:42:42.803Z,5.2
2023-02-12T07:43:52.506Z,5.3
2023-02-12T07:45:02.245Z,4.8
2023-02-12T07:46:12.069Z,5.1
2023-02-12T07:47:21.744Z,4.7
2023-02-12T07:48:31.519Z,4
2023-02-12T07:49:41.402Z,4.3
2023-02-12T07:50:49.137Z,4
2023-02-12T07:51:59.046Z,5.1
2023-02-12T07:53:08.841Z,4.5
2023-02-12T07:54:18.652Z,3.8
2023-02-12T07:55:28.371Z,4.2
2023-02-12T07:56:37.147Z,3.8
2023-02-12T07:57:46.876Z,3.3
2023-02-12T07:58:56.676Z,4.1
2023-02-12T08:00:06.625Z,4
2023-02-12T08:01:15.620Z,4.4
2023-02-12T08:02:25.536Z,4.8
2023-02-12T08:03:34.348Z,4.8
2023-02-12T08:04:43.760Z,5.4
2023-02-12T08:05:54.001Z,4.8
2023-02-12T08:07:02.404Z,4.7
2023-02-12T08:08:11.306Z,4
2023-02-12T08:09:21.097Z,4.2
2023-02-12T08:10:32.443Z,4.2
2023-02-12T08:11:40.647Z,4.2
2023-02-12T08:12:49.368Z,3.4
2023-02-12T08:13:59.208Z,4.2
2023-02-12T08:15:08.973Z,4.1
2023-02-12T08:16:19.047Z,4.5
2023-02-12T08:17:28.741Z,4.1
2023-02-12T08:18:37.538Z,3.8
2023-02-12T08:19:47.505Z,3.7
2023-02-12T08:20:56.382Z,3.8
2023-02-12T08:22:05.402Z,3.8
2023-02-12T08:23:15.140Z,3.3
2023-02-12T08:24:24.948Z,4
2023-02-12T08:25:34.702Z,4
2023-02-12T08:26:44.453Z,3.7
2023-02-12T08:27:53.274Z,3.5
2023-02-12T08:29:03.131Z,3.8
2023-02-12T08:30:15.369Z,4.6
2023-02-12T08:31:23.764Z,3.6
2023-02-12T08:32:33.405Z,4
2023-02-12T08:33:42.196Z,3.4
2023-02-12T08:34:51.927Z,3.7
2023-02-12T08:36:02.116Z,3.3
2023-02-12T08:37:10.362Z,3.5
2023-02-12T08:38:20.083Z,3.9
2023-02-12T08:39:30.838Z,3.8
2023-02-12T08:40:40.617Z,3.8
2023-02-12T08:41:50.349Z,2.9
2023-02-12T08:43:00.116Z,3.7
2023-02-12T08:44:10.071Z,3.4
2023-02-12T08:45:18.883Z,4.2
2023-02-12T08:46:27.800Z,2.9
2023-02-12T08:47:37.449Z,4
2023-02-12T08:48:47.203Z,3
2023-02-12T08:49:56.952Z,4
2023-02-12T08:51:06.748Z,3.1
2023-02-12T08:52:16.473Z,3.4
2023-02-12T08:53:27.222Z,3.3
2023-02-12T08:54:36.962Z,3.6
2023-02-12T08:55:45.719Z,5.9
2023-02-12T08:56:55.464Z,6.7
2023-02-12T08:58:04.192Z,4.4
2023-02-12T08:59:12.911Z,3.4
2023-02-12T09:00:22.667Z,3.5
2023-02-12T09:01:31.476Z,3.7
2023-02-12T09:02:41.207Z,16.700001
2023-02-12T09:03:49.903Z,11.3
2023-02-12T09:04:57.563Z,4.9
2023-02-12T09:06:07.444Z,4
2023-02-12T09:07:16.149Z,3.4
2023-02-12T09:08:25.854Z,3.1
2023-02-12T09:09:35.615Z,3.5
2023-02-12T09:10:45.499Z,3.3
2023-02-12T09:11:55.260Z,3
2023-02-12T09:13:04.988Z,2.9
2023-02-12T09:14:13.740Z,3.3
2023-02-12T09:15:23.517Z,3.1
2023-02-12T09:16:31.345Z,3.4
2023-02-12T09:17:41.069Z,3.1
2023-02-12T09:18:50.833Z,3.3
2023-02-12T09:19:59.682Z,2.5
2023-02-12T09:21:09.419Z,2.3
2023-02-12T09:22:18.171Z,3.7
2023-02-12T09:23:26.953Z,3.6
2023-02-12T09:24:36.634Z,3.2
2023-02-12T09:25:45.357Z,3.1
2023-02-12T09:26:55.074Z,2.8
2023-02-12T09:28:04.800Z,3.2
2023-02-12T09:29:13.447Z,3.7
2023-02-12T09:30:23.264Z,3.5
2023-02-12T09:31:33.499Z,2.7
2023-02-12T09:32:43.049Z,2.8
2023-02-12T09:33:55.117Z,2.8
2023-02-12T09:35:00.413Z,3.2
2023-02-12T09:36:09.075Z,3
2023-02-12T09:37:17.755Z,2.8
2023-02-12T09:38:26.440Z,3.4
2023-02-12T09:39:36.214Z,2.9
2023-02-12T09:40:45.959Z,2.6
2023-02-12T09:41:55.686Z,2.8
2023-02-12T09:43:05.484Z,2.4
2023-02-12T09:44:13.188Z,2.8
2023-02-12T09:45:22.943Z,2.6
2023-02-12T09:46:32.692Z,2.5
2023-02-12T09:47:41.404Z,2.6
2023-02-12T09:48:51.101Z,2
2023-02-12T09:50:00.854Z,2.2
2023-02-12T09:51:10.564Z,2.6
2023-02-12T09:52:20.366Z,2.8
2023-02-12T09:53:30.094Z,2.6
2023-02-12T09:54:39.787Z,2
2023-02-12T09:55:49.579Z,2
2023-02-12T09:56:59.325Z,2
2023-02-12T09:58:09.059Z,1.8
2023-02-12T09:59:18.766Z,1.8
2023-02-12T10:00:28.572Z,1.7
2023-02-12T10:01:39.494Z,1.2
2023-02-12T10:02:49.062Z,1.5
2023-02-12T10:03:58.965Z,1.5
2023-02-12T10:05:08.649Z,1.2
2023-02-12T10:06:18.229Z,1.3
2023-02-12T10:07:27.898Z,3.2
2023-02-12T10:08:36.558Z,0.7
2023-02-12T10:09:46.309Z,0.8
2023-02-12T10:10:56.056Z,0.7
2023-02-12T10:12:05.884Z,0.8
2023-02-12T10:13:15.631Z,0.4
2023-02-12T10:14:27.158Z,0.4
2023-02-12T10:15:37.027Z,0.5
2023-02-12T10:16:46.756Z,0.6
2023-02-12T10:17:55.553Z,0.5
2023-02-12T10:19:05.351Z,0.7
2023-02-12T10:20:15.053Z,0.9
2023-02-12T10:21:22.785Z,0.4
2023-02-12T10:22:32.545Z,0.5
2023-02-12T10:23:42.319Z,0.6
2023-02-12T10:24:52.126Z,0.5
2023-02-12T10:26:01.849Z,0.6
2023-02-12T10:27:11.648Z,0.6
2023-02-12T10:28:21.541Z,0.6
2023-02-12T10:29:31.349Z,0.6
2023-02-12T10:30:40.126Z,0.9
2023-02-12T10:31:50.041Z,0.6
2023-02-12T10:32:59.656Z,0.5
2023-02-12T10:34:09.424Z,0.7
2023-02-12T10:35:19.267Z,0.6
2023-02-12T10:36:26.980Z,0.6
2023-02-12T10:37:36.757Z,0.7
2023-02-12T10:38:47.209Z,0.8
2023-02-12T10:39:56.268Z,0.9
2023-02-12T10:41:05.038Z,1
2023-02-12T10:42:14.829Z,1.1
2023-02-12T10:43:24.543Z,0.7
2023-02-12T10:44:34.293Z,0.8
2023-02-12T10:45:43.030Z,0.8
2023-02-12T10:46:52.793Z,0.9
2023-02-12T10:48:02.608Z,1
2023-02-12T10:49:12.394Z,0.7
2023-02-12T10:50:22.130Z,0.8
2023-02-12T10:51:31.894Z,0.8
2023-02-12T10:52:41.922Z,1
2023-02-12T10:53:51.694Z,1.2
2023-02-12T10:55:00.465Z,0.9
2023-02-12T10:56:09.236Z,0.7
2023-02-12T10:57:17.986Z,1
2023-02-12T10:58:27.883Z,1.1
2023-02-12T10:59:37.590Z,0.7
2023-02-12T11:00:48.138Z,0.8
2023-02-12T11:01:57.998Z,0.9
2023-02-12T11:03:07.717Z,0.8
2023-02-12T11:04:17.497Z,0.9
2023-02-12T11:05:27.277Z,0.9
2023-02-12T11:06:37.046Z,0.8
2023-02-12T11:07:46.785Z,0.6
2023-02-12T11:08:56.573Z,0.8
2023-02-12T11:10:06.366Z,0.9
2023-02-12T11:11:16.136Z,0.8
2023-02-12T11:12:25.877Z,1.2
2023-02-12T11:13:34.618Z,1.2
2023-02-12T11:14:44.423Z,1.1
2023-02-12T11:15:54.227Z,0.9
2023-02-12T11:17:04.046Z,0.9
2023-02-12T11:18:13.761Z,0.7
2023-02-12T11:19:23.541Z,0.7
2023-02-12T11:20:33.344Z,1
2023-02-12T11:21:43.106Z,0.8
2023-02-12T11:22:52.882Z,0.5
2023-02-12T11:24:04.354Z,0.7
2023-02-12T11:25:13.353Z,1.1
2023-02-12T11:26:23.093Z,0.5
2023-02-12T11:27:32.887Z,0.4
2023-02-12T11:28:42.700Z,0.5
2023-02-12T11:29:52.359Z,0.3
2023-02-12T11:31:02.218Z,0.5
2023-02-12T11:32:11.876Z,0.3
2023-02-12T11:33:21.732Z,0.5
2023-02-12T11:34:31.580Z,0.5
2023-02-12T11:35:41.366Z,0.4
2023-02-12T11:36:51.102Z,0.3
2023-02-12T11:37:59.827Z,0.3
2023-02-12T11:39:09.936Z,0.3
2023-02-12T11:40:19.843Z,0.2
2023-02-12T11:41:29.525Z,0.5
2023-02-12T11:42:39.289Z,0.5
2023-02-12T11:43:49.367Z,0.4
2023-02-12T11:44:59.814Z,0.4
2023-02-12T11:46:09.545Z,0.5
2023-02-12T11:47:19.355Z,0.7
2023-02-12T11:48:29.094Z,0.9
2023-02-12T11:49:36.861Z,0.7
2023-02-12T11:50:46.636Z,0.5
2023-02-12T11:51:56.437Z,0.5
2023-02-12T11:53:06.169Z,0.3
2023-02-12T11:54:15.934Z,0.3
2023-02-12T11:55:25.656Z,0.5
2023-02-12T11:56:35.466Z,0.3
2023-02-12T11:57:45.314Z,0.5
2023-02-12T11:58:54.092Z,0.3
2023-02-12T12:00:03.795Z,0.3
2023-02-12T12:01:13.600Z,0.5
2023-02-12T12:02:23.464Z,0.6
2023-02-12T12:03:33.221Z,0.6
2023-02-12T12:04:43.046Z,0.5
2023-02-12T12:05:50.738Z,0.2
2023-02-12T12:07:00.555Z,0.4
2023-02-12T12:08:09.358Z,0.3
2023-02-12T12:09:19.104Z,0.2
2023-02-12T12:10:28.877Z,0.2
2023-02-12T12:11:38.612Z,0.5
2023-02-12T12:12:48.464Z,0.3
2023-02-12T12:13:58.528Z,0.4
2023-02-12T12:15:08.304Z,0.4
2023-02-12T12:16:18.060Z,0.3
2023-02-12T12:17:27.772Z,0.3
2023-02-12T12:18:38.474Z,0.3
2023-02-12T12:19:48.325Z,0.2
2023-02-12T12:20:57.028Z,0.3
2023-02-12T12:22:06.777Z,0.2
2023-02-12T12:23:16.476Z,0.4
2023-02-12T12:24:24.309Z,0.4
2023-02-12T12:25:34.063Z,0.3
2023-02-12T12:26:41.872Z,0.4
2023-02-12T12:27:51.600Z,0.2
2023-02-12T12:29:01.435Z,0.3
2023-02-12T12:30:11.275Z,0.4
2023-02-12T12:31:21.107Z,0.4
2023-02-12T12:32:30.877Z,0.4
2023-02-12T12:33:40.693Z,0.4
2023-02-12T12:34:50.409Z,0.4
2023-02-12T12:36:00.062Z,0.5
2023-02-12T12:37:09.853Z,0.4
2023-02-12T12:38:18.527Z,0.3
2023-02-12T12:39:28.306Z,0.4
2023-02-12T12:40:38.040Z,0.2
2023-02-12T12:41:47.794Z,0.2
2023-02-12T12:42:57.623Z,0.2
2023-02-12T12:44:07.405Z,0.3
2023-02-12T12:45:17.252Z,0.3
2023-02-12T12:46:26.998Z,0.3
2023-02-12T12:47:36.815Z,0.4
2023-02-12T12:48:45.655Z,0.3
2023-02-12T12:49:55.372Z,0.4
2023-02-12T12:51:05.089Z,0.4
2023-02-12T12:52:13.978Z,0.2
2023-02-12T12:53:23.782Z,0.5
2023-02-12T12:54:33.593Z,0.5
2023-02-12T12:55:43.300Z,0.2
2023-02-12T12:56:53.072Z,0.4
2023-02-12T12:58:01.896Z,0.3
2023-02-12T12:59:11.633Z,0.3
2023-02-12T13:00:22.319Z,0.4
2023-02-12T13:01:32.250Z,0.4
2023-02-12T13:02:42.034Z,0.6
2023-02-12T13:03:51.722Z,0.5
2023-02-12T13:05:01.486Z,0.3
2023-02-12T13:06:11.316Z,0.4
2023-02-12T13:07:21.047Z,0.5
2023-02-12T13:08:30.897Z,0.3
2023-02-12T13:09:41.654Z,0.2
2023-02-12T13:10:50.416Z,0.4
2023-02-12T13:12:00.311Z,0.5
2023-02-12T13:13:10.116Z,0.4
2023-02-12T13:14:19.847Z,0.5
2023-02-12T13:15:29.511Z,0.5
2023-02-12T13:16:38.274Z,0.4
2023-02-12T13:17:48.943Z,0.3
2023-02-12T13:18:57.638Z,0.4
2023-02-12T13:20:06.401Z,0.4
2023-02-12T13:21:16.220Z,0.6
2023-02-12T13:22:26.455Z,0.6
2023-02-12T13:23:35.783Z,0.7
2023-02-12T13:24:45.592Z,0.4
2023-02-12T13:25:55.598Z,0.7
2023-02-12T13:27:05.023Z,0.5
2023-02-12T13:28:13.705Z,0.8
2023-02-12T13:29:22.511Z,0.5
2023-02-12T13:30:32.304Z,0.4
2023-02-12T13:31:41.092Z,0.4
2023-02-12T13:32:50.746Z,0.6
2023-02-12T13:34:00.497Z,0.7
2023-02-12T13:35:08.480Z,0.9
2023-02-12T13:36:18.128Z,0.5
2023-02-12T13:37:27.819Z,0.7
2023-02-12T13:38:37.539Z,0.6
2023-02-12T13:39:47.296Z,0.6
2023-02-12T13:40:56.413Z,0.5
2023-02-12T13:42:05.100Z,0.5
2023-02-12T13:43:14.797Z,0.7
2023-02-12T13:44:23.486Z,0.6
2023-02-12T13:45:33.171Z,0.4
2023-02-12T13:46:42.231Z,0.6
2023-02-12T13:47:51.896Z,0.4
2023-02-12T13:49:00.596Z,1.1
2023-02-12T13:50:09.262Z,0.5
2023-02-12T13:51:19.009Z,0.3
2023-02-12T13:52:27.773Z,0.7
2023-02-12T13:53:37.451Z,0.5
2023-02-12T13:54:47.127Z,0.4
2023-02-12T13:55:55.167Z,0.9
2023-02-12T13:57:04.473Z,0.9
2023-02-12T13:58:13.323Z,0.9
2023-02-12T13:59:21.027Z,0.7
2023-02-12T14:00:30.711Z,0.8
2023-02-12T14:01:38.439Z,0.8
2023-02-12T14:02:47.288Z,0.8
2023-02-12T14:03:57.045Z,0.8
2023-02-12T14:05:05.701Z,0.9
2023-02-12T14:06:15.418Z,0.6
2023-02-12T14:07:24.326Z,0.6
2023-02-12T14:08:33.990Z,0.9
2023-02-12T14:09:43.773Z,1
2023-02-12T14:10:51.422Z,1.2
2023-02-12T14:12:01.095Z,0.9
2023-02-12T14:13:10.771Z,0.9
2023-02-12T14:14:19.446Z,1
2023-02-12T14:15:29.253Z,1.1
2023-02-12T14:16:38.913Z,0.9
2023-02-12T14:17:48.614Z,0.7
2023-02-12T14:18:58.305Z,0.6
2023-02-12T14:20:07.980Z,0.6
2023-02-12T14:21:16.748Z,0.8
2023-02-12T14:22:26.438Z,1.1
2023-02-12T14:23:35.096Z,1.1
2023-02-12T14:24:44.787Z,0.7
2023-02-12T14:25:54.642Z,0.8
2023-02-12T14:27:02.132Z,0.5
2023-02-12T14:28:11.838Z,0.8
2023-02-12T14:29:20.525Z,0.9
2023-02-12T14:30:29.185Z,0.7
2023-02-12T14:31:38.953Z,0.5
2023-02-12T14:32:46.519Z,0.6
2023-02-12T14:33:56.207Z,0.6
2023-02-12T14:35:04.862Z,0.5
2023-02-12T14:36:14.557Z,1
2023-02-12T14:37:24.230Z,0.7
2023-02-12T14:38:42.573Z,0.6
2023-02-12T14:39:43.658Z,0.9
2023-02-12T14:40:53.340Z,0.7
2023-02-12T14:42:00.990Z,0.8
2023-02-12T14:43:10.731Z,0.7
2023-02-12T14:44:19.446Z,0.6
2023-02-12T14:45:28.111Z,0.9
2023-02-12T14:46:37.892Z,0.7
2023-02-12T14:47:46.457Z,0.8
2023-02-12T14:48:55.122Z,0.7
2023-02-12T14:50:04.810Z,0.9
2023-02-12T14:51:13.483Z,1
2023-02-12T14:52:23.133Z,0.9
2023-02-12T14:53:31.780Z,0.8
2023-02-12T14:54:39.470Z,0.7
2023-02-12T14:55:49.137Z,0.6
2023-02-12T14:56:56.772Z,0.8
2023-02-12T14:58:06.483Z,0.7
2023-02-12T14:59:16.142Z,1.1
2023-02-12T15:00:25.811Z,1
2023-02-12T15:01:35.509Z,1.1
2023-02-12T15:02:44.186Z,1.2
2023-02-12T15:03:53.860Z,1
2023-02-12T15:05:03.574Z,0.9
2023-02-12T15:06:12.178Z,0.8
2023-02-12T15:07:21.942Z,0.9
2023-02-12T15:08:31.597Z,1.2
2023-02-12T15:09:40.256Z,1.2
2023-02-12T15:10:49.976Z,1.1
2023-02-12T15:11:59.596Z,1
2023-02-12T15:13:08.281Z,0.8
2023-02-12T15:14:17.974Z,1
2023-02-12T15:15:26.626Z,1.1
2023-02-12T15:16:36.291Z,0.6
2023-02-12T15:17:45.964Z,0.7
2023-02-12T15:18:55.666Z,0.8
2023-02-12T15:20:05.320Z,1.5
2023-02-12T15:21:13.994Z,1.2
2023-02-12T15:22:22.645Z,1.1
2023-02-12T15:23:32.304Z,1
2023-02-12T15:24:39.995Z,0.7
2023-02-12T15:25:48.679Z,1
2023-02-12T15:26:58.353Z,1.3
2023-02-12T15:28:07.026Z,1
2023-02-12T15:29:16.641Z,0.8
2023-02-12T15:30:26.922Z,1.1
2023-02-12T15:31:35.109Z,1
2023-02-12T15:32:44.715Z,0.9
2023-02-12T15:33:52.333Z,0.8
2023-02-12T15:35:00.983Z,1.1
2023-02-12T15:36:10.712Z,1.4
2023-02-12T15:37:18.388Z,1.1
2023-02-12T15:38:28.049Z,1.3
2023-02-12T15:39:36.688Z,1.3
2023-02-12T15:40:45.373Z,1.7
2023-02-12T15:41:55.045Z,1.7
2023-02-12T15:43:03.745Z,1.3
2023-02-12T15:44:13.416Z,1.3
2023-02-12T15:45:22.138Z,1.3
2023-02-12T15:46:31.896Z,1.6
2023-02-12T15:47:41.527Z,1.6
2023-02-12T15:48:50.186Z,1.8
2023-02-12T15:49:59.858Z,2
2023-02-12T15:51:09.512Z,2
2023-02-12T15:52:18.177Z,2.1
2023-02-12T15:53:28.305Z,2.5
2023-02-12T15:54:35.955Z,1.3
2023-02-12T15:55:45.630Z,1.3
2023-02-12T15:56:55.411Z,1.2
2023-02-12T15:58:05.101Z,2
2023-02-12T15:59:13.843Z,1.8
2023-02-12T16:00:23.513Z,1.7